Time;durP1;ratioP1;P1;durP2;ratioP2;P2;SDS_P1;SDS_P2;PMS_P1;PMS_P2;Temp;Humidity;BMP_temperature;BMP_pressure;BME280_temperature;BME280_humidity;BME280_pressure;Samples;Min_cycle;Max_cycle;Signal;HPM_P1;HPM_P2
2023/07/13 00:00:22;;;;;;;5.60;1.70;;;;;;;14.29;100.00;101219.91;1262604;23;20025;-46
2023/07/13 00:00:53;;;;;;;3.92;1.23;;;;;;;14.39;100.00;101214.75;1259004;23;20101;-48
2023/07/13 00:01:25;;;;;;;5.97;1.80;;;;;;;14.42;100.00;101214.28;1267484;23;20022;-47
2023/07/13 00:01:58;;;;;;;4.90;1.17;;;;;;;14.18;100.00;101210.78;1277946;23;20017;-48
2023/07/13 00:02:30;;;;;;;2.45;0.90;;;;;;;14.02;100.00;101211.47;1276682;23;20365;-48
2023/07/13 00:03:02;;;;;;;3.60;1.65;;;;;;;13.73;100.00;101212.31;1273691;23;20092;-46
2023/07/13 00:03:35;;;;;;;2.95;1.17;;;;;;;13.63;100.00;101206.66;1274286;23;20013;-47
2023/07/13 00:04:06;;;;;;;6.97;1.77;;;;;;;13.69;100.00;101216.47;1274053;23;20024;-48
2023/07/13 00:04:38;;;;;;;6.35;1.27;;;;;;;13.77;100.00;101211.63;1271701;23;20013;-49
2023/07/13 00:05:10;;;;;;;5.18;1.17;;;;;;;13.83;100.00;101220.59;1274302;23;20021;-48
2023/07/13 00:05:41;;;;;;;6.15;1.70;;;;;;;13.98;100.00;101209.47;1272006;23;20022;-48
2023/07/13 00:06:13;;;;;;;2.83;1.08;;;;;;;14.04;100.00;101211.22;1273797;23;20013;-48
2023/07/13 00:06:46;;;;;;;3.95;1.40;;;;;;;13.76;100.00;101212.66;1274270;23;20017;-47
2023/07/13 00:07:21;;;;;;;6.60;1.75;;;;;;;13.75;100.00;101213.72;1273788;23;20021;-47
2023/07/13 00:07:52;;;;;;;5.97;1.77;;;;;;;13.67;100.00;101211.34;1272276;23;20460;-48
2023/07/13 00:08:24;;;;;;;4.28;1.50;;;;;;;13.59;100.00;101211.66;1272016;23;20366;-48
2023/07/13 00:08:56;;;;;;;3.13;1.02;;;;;;;13.56;100.00;101215.63;1273729;23;20024;-48
2023/07/13 00:09:27;;;;;;;4.18;1.10;;;;;;;13.74;100.00;101213.94;1273860;23;20018;-49
2023/07/13 00:09:59;;;;;;;7.40;1.15;;;;;;;13.53;100.00;101218.75;1271932;23;20097;-47
2023/07/13 00:10:31;;;;;;;1.50;1.08;;;;;;;13.67;100.00;101222.03;1271328;23;20346;-46
2023/07/13 00:11:03;;;;;;;4.43;1.35;;;;;;;13.59;100.00;101214.34;1272158;23;20095;-48
2023/07/13 00:11:35;;;;;;;1.67;1.05;;;;;;;13.70;100.00;101212.78;1273919;23;20096;-50
2023/07/13 00:12:27;;;;;;;3.75;1.45;;;;;;;13.61;100.00;101215.75;1273588;23;20013;-47
2023/07/13 00:12:59;;;;;;;6.45;1.90;;;;;;;13.52;100.00;101210.94;1274170;23;20014;-49
2023/07/13 00:13:30;;;;;;;8.40;2.40;;;;;;;13.55;100.00;101210.50;1271806;23;20026;-45
2023/07/13 00:14:02;;;;;;;2.13;1.10;;;;;;;13.58;100.00;101212.72;1274229;23;20013;-49
2023/07/13 00:15:04;;;;;;;;;;;;;;;;;;;;;
2023/07/13 00:16:25;;;;;;;3.95;1.55;;;;;;;13.87;100.00;101206.53;1261495;23;20813;-46
2023/07/13 00:17:38;;;;;;;4.18;0.98;;;;;;;13.58;100.00;101210.03;1275604;23;20027;-41
2023/07/13 00:18:44;;;;;;;4.40;1.48;;;;;;;13.44;100.00;101219.28;1279262;23;20021;-50
2023/07/13 00:20:57;;;;;;;1.70;1.05;;;;;;;13.71;100.00;101212.53;1272271;23;20445;-46
2023/07/13 00:22:21;;;;;;;6.60;1.50;;;;;;;13.66;100.00;101206.22;1251530;23;19999;-41
2023/07/13 00:23:25;;;;;;;3.25;1.52;;;;;;;13.77;100.00;101208.94;1265769;23;20021;-41
2023/07/13 00:24:41;;;;;;;3.00;1.13;;;;;;;13.80;100.00;101205.81;1257623;23;20015;-47
2023/07/13 00:26:12;;;;;;;8.45;1.90;;;;;;;13.64;100.00;101214.47;1259854;23;20048;-41
2023/07/13 00:27:41;;;;;;;2.25;1.27;;;;;;;13.59;100.00;101211.66;1252014;23;20071;-43
2023/07/13 00:28:41;;;;;;;3.40;1.40;;;;;;;13.43;100.00;101207.78;1250474;23;20054;-41
2023/07/13 00:29:51;;;;;;;;;;;;;;;;;;;;;
2023/07/13 00:30:58;;;;;;;1.63;1.13;;;;;;;13.39;100.00;101216.44;1287501;23;20021;-41
2023/07/13 00:31:43;;;;;;;5.03;1.35;;;;;;;13.33;100.00;101215.50;1276565;23;20017;-48
2023/07/13 00:32:57;;;;;;;3.50;1.17;;;;;;;13.43;100.00;101221.16;1269374;23;20041;-47
2023/07/13 00:34:32;;;;;;;;;;;;;;;13.20;100.00;101221.03;1274272;23;20013;-41
2023/07/13 00:35:34;;;;;;;9.48;1.90;;;;;;;13.51;100.00;101220.03;1263348;23;19969;-47
2023/07/13 00:36:46;;;;;;;3.17;1.48;;;;;;;13.46;100.00;101217.22;1276744;23;20018;-47
2023/07/13 00:37:56;;;;;;;4.90;1.83;;;;;;;13.48;100.00;101215.94;1284093;23;20083;-49
2023/07/13 00:38:56;;;;;;;2.80;1.45;;;;;;;13.44;100.00;101220.09;1270224;23;20018;-40
2023/07/13 00:40:00;;;;;;;2.47;1.20;;;;;;;13.47;100.00;101218.84;1264204;23;20018;-48
2023/07/13 00:40:53;;;;;;;6.32;1.73;;;;;;;13.32;100.00;101218.41;1261097;23;20045;-43
2023/07/13 00:41:48;;;;;;;6.80;1.90;;;;;;;13.47;100.00;101224.19;1263465;23;20045;-41
2023/07/13 00:43:04;;;;;;;4.00;1.63;;;;;;;13.53;100.00;101216.06;1265713;23;20093;-46
2023/07/13 00:43:36;;;;;;;10.52;1.63;;;;;;;13.59;100.00;101217.84;1253244;23;20073;-47
2023/07/13 00:44:14;;;;;;;6.20;2.00;;;;;;;13.64;100.00;101219.81;1262402;23;20018;-50
2023/07/13 00:45:07;;;;;;;6.15;1.77;;;;;;;13.65;100.00;101213.44;1267284;23;20081;-47
2023/07/13 00:45:45;;;;;;;5.70;2.30;;;;;;;13.59;100.00;101222.38;1274094;23;20022;-47
2023/07/13 00:46:24;;;;;;;3.55;2.10;;;;;;;13.72;100.00;101216.03;1273180;23;20020;-47
2023/07/13 00:46:58;;;;;;;5.05;1.60;;;;;;;13.76;100.00;101215.34;1271658;23;20116;-48
2023/07/13 00:47:29;;;;;;;7.00;1.88;;;;;;;13.79;100.00;101217.56;1273755;23;20143;-47
2023/07/13 00:48:01;;;;;;;5.22;1.75;;;;;;;13.85;100.00;101215.81;1274008;23;20013;-47
2023/07/13 00:48:35;;;;;;;3.85;2.00;;;;;;;13.65;100.00;101213.44;1271288;23;20018;-47
2023/07/13 00:49:10;;;;;;;3.00;1.40;;;;;;;13.35;100.00;101217.94;1273196;23;20024;-47
2023/07/13 00:49:42;;;;;;;3.95;1.92;;;;;;;13.25;100.00;101211.28;1273515;23;20013;-41
2023/07/13 00:50:15;;;;;;;5.43;2.00;;;;;;;13.32;100.00;101221.06;1269229;23;20018;-41
2023/07/13 00:50:50;;;;;;;4.95;1.95;;;;;;;13.51;100.00;101214.66;1273247;23;20114;-41
2023/07/13 00:51:26;;;;;;;6.57;2.05;;;;;;;13.70;100.00;101216.25;1267593;23;20029;-41
2023/07/13 00:52:02;;;;;;;6.32;2.08;;;;;;;13.80;100.00;101221.06;1261978;23;20439;-41
2023/07/13 00:52:36;;;;;;;3.88;1.70;;;;;;;13.79;100.00;101222.91;1253570;23;20025;-41
2023/07/13 00:53:08;;;;;;;8.40;3.38;;;;;;;13.92;100.00;101220.03;1264896;23;20044;-47
2023/07/13 00:53:40;;;;;;;12.00;2.15;;;;;;;13.85;100.00;101226.53;1268136;23;20018;-47
2023/07/13 00:54:15;;;;;;;5.43;2.22;;;;;;;13.75;100.00;101219.06;1268119;23;20547;-47
2023/07/13 00:54:47;;;;;;;7.32;2.75;;;;;;;13.69;100.00;101224.50;1265863;23;20013;-41
2023/07/13 00:55:18;;;;;;;11.95;2.83;;;;;;;13.69;100.00;101230.66;1255279;23;20015;-41
2023/07/13 00:55:51;;;;;;;9.30;2.70;;;;;;;13.84;100.00;101222.22;1254540;23;20101;-41
2023/07/13 00:56:23;;;;;;;5.03;2.50;;;;;;;13.82;100.00;101221.66;1256397;23;20023;-41
2023/07/13 00:56:58;;;;;;;6.47;2.63;;;;;;;13.78;100.00;101226.63;1255686;23;20126;-44
2023/07/13 00:57:30;;;;;;;4.40;1.90;;;;;;;13.87;100.00;101230.63;1261195;23;20065;-41
2023/07/13 00:58:02;;;;;;;4.60;1.95;;;;;;;13.75;100.00;101226.28;1267902;23;20022;-41
2023/07/13 00:58:34;;;;;;;10.45;2.45;;;;;;;13.72;100.00;101224.88;1265868;23;20100;-41
2023/07/13 00:59:09;;;;;;;6.18;2.22;;;;;;;13.76;100.00;101223.38;1265304;23;20209;-41
2023/07/13 00:59:43;;;;;;;4.78;1.80;;;;;;;13.85;100.00;101222.00;1253101;23;20022;-41
2023/07/13 01:00:16;;;;;;;4.30;3.00;;;;;;;13.73;100.00;101225.69;1255554;23;20078;-41
2023/07/13 01:00:48;;;;;;;4.25;2.20;;;;;;;13.85;100.00;101227.34;1256853;23;20014;-41
2023/07/13 01:01:20;;;;;;;5.47;2.08;;;;;;;14.00;100.00;101226.13;1256907;23;20331;-41
2023/07/13 01:01:52;;;;;;;6.72;2.05;;;;;;;13.96;100.00;101222.25;1267626;23;20025;-41
2023/07/13 01:02:25;;;;;;;8.85;1.92;;;;;;;13.87;100.00;101217.22;1259503;23;20026;-41
2023/07/13 01:02:57;;;;;;;7.18;2.00;;;;;;;13.81;100.00;101226.19;1262375;23;20065;-41
2023/07/13 01:03:30;;;;;;;5.30;1.95;;;;;;;13.97;100.00;101224.72;1258845;23;20486;-41
2023/07/13 01:04:02;;;;;;;4.63;1.90;;;;;;;13.44;100.00;101221.97;1262547;23;20471;-41
2023/07/13 01:04:33;;;;;;;7.35;2.92;;;;;;;13.76;100.00;101225.25;1259682;23;20015;-46
2023/07/13 01:05:17;;;;;;;5.95;1.85;;;;;;;13.87;100.00;101217.22;1260086;23;20023;-48
2023/07/13 01:05:50;;;;;;;10.75;2.75;;;;;;;13.92;100.00;101217.34;1259099;23;20022;-48
2023/07/13 01:06:21;;;;;;;4.00;1.95;;;;;;;13.81;100.00;101220.81;1256735;23;20066;-47
2023/07/13 01:06:53;;;;;;;4.00;1.80;;;;;;;13.91;100.00;101210.38;1253213;23;20455;-46
2023/07/13 01:07:25;;;;;;;8.82;2.80;;;;;;;13.99;100.00;101217.28;1254217;23;20517;-41
2023/07/13 01:07:58;;;;;;;5.65;1.77;;;;;;;14.11;100.00;101215.44;1254220;23;20474;-41
2023/07/13 01:08:29;;;;;;;5.53;2.00;;;;;;;13.89;100.00;101214.31;1262146;23;20023;-41
2023/07/13 01:09:05;;;;;;;4.93;1.90;;;;;;;13.96;100.00;101216.91;1259678;23;20085;-43
2023/07/13 01:09:37;;;;;;;6.40;2.58;;;;;;;14.01;100.00;101215.19;1263772;23;20015;-49
2023/07/13 01:10:08;;;;;;;7.35;2.42;;;;;;;13.96;100.00;101223.06;1258850;23;20169;-46
2023/07/13 01:10:40;;;;;;;8.23;1.77;;;;;;;14.00;100.00;101223.44;1254853;23;20018;-47
2023/07/13 01:11:12;;;;;;;14.60;3.50;;;;;;;14.03;100.00;101212.28;1261529;23;20081;-47
2023/07/13 01:11:45;;;;;;;6.65;2.38;;;;;;;14.08;100.00;101215.06;1260087;23;20423;-47
2023/07/13 01:12:17;;;;;;;9.50;2.17;;;;;;;14.06;100.00;101211.81;1267527;23;20097;-47
2023/07/13 01:12:48;;;;;;;8.18;1.75;;;;;;;14.08;100.00;101223.13;1264771;23;20029;-48
2023/07/13 01:13:20;;;;;;;6.78;2.22;;;;;;;14.08;100.00;101220.44;1259330;23;20022;-47
2023/07/13 01:13:52;;;;;;;4.47;2.33;;;;;;;14.02;100.00;101216.00;1261575;23;20104;-47
2023/07/13 01:14:24;;;;;;;5.00;2.22;;;;;;;14.16;100.00;101222.78;1262245;23;20023;-46
2023/07/13 01:14:58;;;;;;;7.97;2.05;;;;;;;14.25;100.00;101221.41;1267557;23;20014;-47
2023/07/13 01:15:41;;;;;;;8.35;2.78;;;;;;;14.05;100.00;101221.72;1267883;23;20017;-47
2023/07/13 01:16:22;;;;;;;6.03;2.10;;;;;;;14.06;100.00;101217.97;1267628;23;20089;-48
2023/07/13 01:16:54;;;;;;;8.73;2.30;;;;;;;14.09;100.00;101222.06;1267702;23;20014;-47
2023/07/13 01:17:27;;;;;;;3.78;2.10;;;;;;;13.88;100.00;101221.53;1259299;23;20026;-41
2023/07/13 01:18:00;;;;;;;7.60;3.03;;;;;;;13.67;100.00;101219.38;1259250;23;20373;-41
2023/07/13 01:18:32;;;;;;;10.05;1.70;;;;;;;13.80;100.00;101221.06;1262844;23;20022;-41
2023/07/13 01:19:15;;;;;;;3.63;1.65;;;;;;;13.92;100.00;101222.72;1260512;23;20578;-47
2023/07/13 01:19:47;;;;;;;7.00;1.85;;;;;;;13.89;100.00;101219.69;1267649;23;20017;-47
2023/07/13 01:20:20;;;;;;;3.10;1.70;;;;;;;13.75;100.00;101224.44;1266224;23;20049;-47
2023/07/13 01:20:59;;;;;;;8.38;2.15;;;;;;;13.75;100.00;101226.28;1262371;23;20018;-47
2023/07/13 01:21:32;;;;;;;4.68;2.35;;;;;;;13.77;100.00;101230.38;1267458;23;20461;-46
2023/07/13 01:22:11;;;;;;;7.30;2.08;;;;;;;13.59;100.00;101223.19;1265128;23;20345;-46
2023/07/13 01:22:43;;;;;;;7.15;2.03;;;;;;;13.58;100.00;101224.22;1269141;23;20462;-47
2023/07/13 01:23:15;;;;;;;8.05;1.98;;;;;;;13.56;100.00;101222.81;1273117;23;20013;-48
2023/07/13 01:23:48;;;;;;;6.93;2.17;;;;;;;13.69;100.00;101222.63;1265307;23;20350;-47
2023/07/13 01:24:19;;;;;;;6.70;2.45;;;;;;;13.52;100.00;101227.00;1267499;23;20089;-47
2023/07/13 01:24:53;;;;;;;6.78;2.22;;;;;;;13.54;100.00;101224.91;1265281;23;20017;-49
2023/07/13 01:25:25;;;;;;;8.80;1.52;;;;;;;13.56;100.00;101223.63;1267222;23;20413;-41
2023/07/13 01:25:58;;;;;;;6.70;2.33;;;;;;;13.41;100.00;101225.88;1267951;23;20216;-41
2023/07/13 01:26:29;;;;;;;3.20;1.65;;;;;;;13.55;100.00;101222.00;1265822;23;20026;-41
2023/07/13 01:27:03;;;;;;;6.97;1.92;;;;;;;13.66;100.00;101220.41;1267907;23;20017;-41
2023/07/13 01:27:35;;;;;;;7.45;2.85;;;;;;;13.73;100.00;101229.19;1267499;23;20272;-47
2023/07/13 01:28:11;;;;;;;6.47;1.70;;;;;;;13.81;100.00;101220.00;1267195;23;20013;-46
2023/07/13 01:28:43;;;;;;;3.35;1.60;;;;;;;13.90;100.00;101221.31;1259365;23;20357;-46
2023/07/13 01:29:14;;;;;;;4.47;1.52;;;;;;;13.94;100.00;101219.81;1263164;23;20062;-46
2023/07/13 01:29:47;;;;;;;3.92;2.47;;;;;;;14.04;100.00;101221.94;1265350;23;20022;-47
2023/07/13 01:30:19;;;;;;;9.45;2.30;;;;;;;13.82;100.00;101222.47;1267635;23;20018;-47
2023/07/13 01:30:51;;;;;;;4.57;1.77;;;;;;;13.54;100.00;101217.69;1265470;23;20021;-47
2023/07/13 01:31:22;;;;;;;3.67;2.15;;;;;;;13.56;100.00;101220.16;1266325;23;20026;-46
2023/07/13 01:31:55;;;;;;;6.18;1.40;;;;;;;13.42;100.00;101224.03;1266052;23;20014;-48
2023/07/13 01:32:28;;;;;;;5.55;1.83;;;;;;;13.47;100.00;101221.53;1265452;23;20032;-47
2023/07/13 01:33:00;;;;;;;5.45;1.75;;;;;;;13.58;100.00;101216.19;1268121;23;20449;-41
2023/07/13 01:33:32;;;;;;;6.90;1.90;;;;;;;13.56;100.00;101222.81;1266110;23;20024;-41
2023/07/13 01:34:03;;;;;;;3.85;1.55;;;;;;;13.55;100.00;101221.19;1259528;23;20018;-41
2023/07/13 01:34:36;;;;;;;6.63;2.78;;;;;;;13.70;100.00;101224.28;1268116;23;20021;-41
2023/07/13 01:35:08;;;;;;;6.60;1.77;;;;;;;13.46;100.00;101227.91;1267703;23;20445;-41
2023/07/13 01:35:42;;;;;;;7.90;2.03;;;;;;;13.45;100.00;101220.94;1265757;23;20018;-41
2023/07/13 01:36:13;;;;;;;4.25;1.48;;;;;;;13.53;100.00;101220.59;1268362;23;20041;-41
2023/07/13 01:36:45;;;;;;;10.90;1.77;;;;;;;13.56;100.00;101223.63;1265528;23;20017;-41
2023/07/13 01:37:17;;;;;;;7.20;2.00;;;;;;;13.73;100.00;101223.84;1265392;23;20465;-41
2023/07/13 01:37:48;;;;;;;10.60;3.47;;;;;;;13.82;100.00;101227.81;1267986;23;20081;-41
2023/07/13 01:38:22;;;;;;;6.68;2.10;;;;;;;13.61;100.00;101220.28;1266024;23;20231;-41
2023/07/13 01:38:54;;;;;;;3.53;1.40;;;;;;;13.67;100.00;101227.41;1268032;23;20409;-41
2023/07/13 01:39:25;;;;;;;7.65;2.67;;;;;;;13.77;100.00;101227.69;1265513;23;20413;-40
2023/07/13 01:39:57;;;;;;;6.32;2.42;;;;;;;13.76;100.00;101231.41;1267426;23;20046;-41
2023/07/13 01:40:29;;;;;;;2.45;1.90;;;;;;;13.63;100.00;101228.09;1268132;23;20022;-40
2023/07/13 01:41:02;;;;;;;6.78;1.90;;;;;;;13.46;100.00;101233.25;1267740;23;20013;-41
2023/07/13 01:41:33;;;;;;;6.53;2.08;;;;;;;13.62;100.00;101227.25;1268184;23;20125;-41
2023/07/13 01:42:05;;;;;;;9.85;2.15;;;;;;;13.78;100.00;101232.00;1266315;23;20481;-41
2023/07/13 01:42:38;;;;;;;5.00;1.85;;;;;;;13.72;100.00;101224.06;1265880;23;20093;-41
2023/07/13 01:43:09;;;;;;;5.32;2.17;;;;;;;13.53;100.00;101221.41;1259631;23;20019;-48
2023/07/13 01:43:41;;;;;;;3.22;1.20;;;;;;;13.64;100.00;101230.53;1253810;23;20023;-47
2023/07/13 01:44:13;;;;;;;10.93;1.80;;;;;;;13.58;100.00;101218.88;1256193;23;20018;-48
2023/07/13 01:44:44;;;;;;;7.28;2.25;;;;;;;13.67;100.00;101219.38;1262568;23;20375;-46
2023/07/13 01:45:17;;;;;;;6.20;1.92;;;;;;;13.48;100.00;101223.16;1260183;23;20444;-47
2023/07/13 01:45:49;;;;;;;4.97;1.70;;;;;;;13.42;100.00;101218.69;1267599;23;20024;-47
2023/07/13 01:46:20;;;;;;;2.08;1.30;;;;;;;13.39;100.00;101227.97;1269370;23;20042;-47
2023/07/13 01:46:54;;;;;;;3.28;1.67;;;;;;;13.47;100.00;101224.19;1267771;23;20040;-47
2023/07/13 01:47:30;;;;;;;10.23;2.22;;;;;;;13.72;100.00;101222.22;1266105;23;20062;-46
2023/07/13 01:48:02;;;;;;;5.63;1.63;;;;;;;13.79;100.00;101233.63;1266805;23;20025;-47
2023/07/13 01:48:34;;;;;;;6.40;1.88;;;;;;;13.87;100.00;101219.09;1267264;23;20021;-47
2023/07/13 01:49:06;;;;;;;7.40;1.60;;;;;;;13.74;100.00;101225.47;1266040;23;20093;-48
2023/07/13 01:49:38;;;;;;;6.05;1.23;;;;;;;13.54;100.00;101224.91;1265032;23;20022;-48
2023/07/13 01:50:10;;;;;;;4.18;1.55;;;;;;;13.40;100.00;101221.56;1267777;23;20018;-46
2023/07/13 01:50:41;;;;;;;2.97;1.52;;;;;;;13.51;100.00;101212.00;1266675;23;21066;-47
2023/07/13 01:51:15;;;;;;;3.83;1.70;;;;;;;13.52;100.00;101216.28;1273019;23;20017;-46
2023/07/13 01:51:48;;;;;;;3.97;1.52;;;;;;;13.57;100.00;101217.25;1265668;23;20018;-46
2023/07/13 01:52:20;;;;;;;4.53;1.83;;;;;;;13.77;100.00;101225.00;1259278;23;20474;-48
2023/07/13 01:52:51;;;;;;;5.53;1.73;;;;;;;13.87;100.00;101217.22;1253462;23;20018;-48
2023/07/13 01:53:23;;;;;;;7.47;1.95;;;;;;;13.89;100.00;101217.81;1256497;23;20023;-47
2023/07/13 01:53:55;;;;;;;5.82;2.03;;;;;;;13.90;100.00;101214.09;1262043;23;20062;-48
2023/07/13 01:54:27;;;;;;;6.38;1.27;;;;;;;14.04;100.00;101216.59;1267473;23;20105;-49
2023/07/13 01:54:59;;;;;;;4.60;1.42;;;;;;;14.02;100.00;101210.66;1266054;23;20353;-46
2023/07/13 01:55:31;;;;;;;4.32;1.55;;;;;;;13.98;100.00;101214.84;1268359;23;20017;-46
2023/07/13 01:56:03;;;;;;;3.05;1.45;;;;;;;14.02;100.00;101216.81;1272803;23;20549;-46
2023/07/13 01:56:34;;;;;;;3.75;2.38;;;;;;;13.75;100.00;101219.06;1271440;23;20607;-46
2023/07/13 01:57:06;;;;;;;12.70;1.90;;;;;;;13.81;100.00;101226.19;1259798;23;20041;-48
2023/07/13 01:57:38;;;;;;;2.17;1.42;;;;;;;13.96;100.00;101219.56;1261470;23;20014;-47
2023/07/13 01:58:09;;;;;;;8.68;2.10;;;;;;;14.04;100.00;101213.91;1260472;23;20029;-47
2023/07/13 01:58:41;;;;;;;4.13;1.73;;;;;;;14.15;100.00;101218.47;1266389;23;20018;-47
2023/07/13 01:59:13;;;;;;;3.67;1.60;;;;;;;14.11;100.00;101214.63;1265350;23;20446;-48
2023/07/13 01:59:44;;;;;;;6.30;1.95;;;;;;;14.17;100.00;101219.03;1265165;23;20014;-47
2023/07/13 02:00:16;;;;;;;2.70;1.67;;;;;;;13.85;100.00;101211.28;1266186;23;20405;-46
2023/07/13 02:00:51;;;;;;;6.68;2.15;;;;;;;13.78;100.00;101215.94;1272952;23;20014;-47
2023/07/13 02:01:23;;;;;;;3.92;1.50;;;;;;;13.94;100.00;101214.44;1274204;23;20140;-46
2023/07/13 02:01:55;;;;;;;4.20;1.85;;;;;;;13.93;100.00;101213.63;1274068;23;20013;-46
2023/07/13 02:02:26;;;;;;;5.60;1.42;;;;;;;14.07;100.00;101214.25;1273532;23;20084;-48
2023/07/13 02:02:58;;;;;;;3.35;1.55;;;;;;;14.10;100.00;101207.63;1274971;23;20025;-47
2023/07/13 02:03:30;;;;;;;6.10;1.70;;;;;;;14.08;100.00;101207.03;1271624;23;20449;-41
2023/07/13 02:04:03;;;;;;;5.00;1.73;;;;;;;13.92;100.00;101205.81;1274126;23;20096;-40
2023/07/13 02:04:37;;;;;;;5.95;1.83;;;;;;;14.10;100.00;101202.25;1265786;23;20477;-41
2023/07/13 02:05:09;;;;;;;5.57;1.70;;;;;;;14.06;100.00;101212.63;1266932;23;20511;-41
2023/07/13 02:05:41;;;;;;;8.77;2.20;;;;;;;14.12;100.00;101210.88;1273758;23;20014;-41
2023/07/13 02:06:13;;;;;;;2.22;1.48;;;;;;;13.87;100.00;101217.22;1272883;23;20018;-41
2023/07/13 02:06:45;;;;;;;3.60;1.23;;;;;;;13.72;100.00;101216.84;1280143;23;20338;-41
2023/07/13 02:07:20;;;;;;;3.88;1.55;;;;;;;13.86;100.00;101215.59;1278375;23;20024;-41
2023/07/13 02:07:52;;;;;;;3.05;1.52;;;;;;;13.89;100.00;101217.81;1273908;23;20013;-41
2023/07/13 02:08:24;;;;;;;5.43;2.30;;;;;;;13.69;100.00;101211.91;1265400;23;20026;-41
2023/07/13 02:08:56;;;;;;;5.40;2.03;;;;;;;13.87;100.00;101214.56;1259519;23;20018;-47
2023/07/13 02:09:27;;;;;;;10.13;1.77;;;;;;;13.89;100.00;101227.72;1254477;23;20023;-47
2023/07/13 02:09:59;;;;;;;8.80;1.70;;;;;;;13.93;100.00;101213.63;1259805;23;20366;-46
2023/07/13 02:10:30;;;;;;;6.70;2.03;;;;;;;13.84;100.00;101223.03;1267770;23;20354;-48
2023/07/13 02:11:03;;;;;;;6.88;1.88;;;;;;;13.88;100.00;101220.72;1259938;23;20377;-48
2023/07/13 02:11:35;;;;;;;2.55;1.38;;;;;;;13.96;100.00;101222.25;1265384;23;20077;-41
2023/07/13 02:12:07;;;;;;;7.07;1.02;;;;;;;13.83;100.00;101223.28;1267822;23;20362;-41
2023/07/13 02:12:40;;;;;;;1.90;1.67;;;;;;;13.75;100.00;101227.09;1273214;23;20025;-41
2023/07/13 02:13:12;;;;;;;4.85;1.63;;;;;;;13.74;100.00;101220.13;1286673;23;20404;-41
2023/07/13 02:13:44;;;;;;;5.20;1.40;;;;;;;13.70;100.00;101218.94;1284193;23;20526;-40
2023/07/13 02:14:15;;;;;;;7.32;1.38;;;;;;;13.82;100.00;101227.81;1277015;23;20021;-41
2023/07/13 02:14:48;;;;;;;2.72;1.63;;;;;;;13.89;100.00;101228.53;1271750;23;20279;-40
2023/07/13 02:15:19;;;;;;;3.58;1.30;;;;;;;14.03;100.00;101218.44;1274006;23;20020;-41
2023/07/13 02:15:51;;;;;;;8.98;2.22;;;;;;;14.01;100.00;101227.75;1271763;23;20024;-41
2023/07/13 02:16:23;;;;;;;3.10;1.45;;;;;;;13.88;100.00;101226.09;1271744;23;20477;-41
2023/07/13 02:16:55;;;;;;;6.35;1.90;;;;;;;13.94;100.00;101219.81;1274000;23;20013;-41
2023/07/13 02:17:27;;;;;;;4.82;2.50;;;;;;;13.96;100.00;101227.59;1274172;23;20024;-41
2023/07/13 02:17:58;;;;;;;4.82;2.03;;;;;;;14.07;100.00;101226.84;1284050;23;20135;-41
2023/07/13 02:18:30;;;;;;;3.90;1.45;;;;;;;14.18;100.00;101215.31;1277874;23;20028;-41
2023/07/13 02:19:02;;;;;;;4.05;1.60;;;;;;;14.11;100.00;101225.31;1277299;23;20469;-40
2023/07/13 02:19:33;;;;;;;7.07;2.40;;;;;;;14.11;100.00;101222.66;1279654;23;20017;-41
2023/07/13 02:20:06;;;;;;;6.45;1.98;;;;;;;14.02;100.00;101226.72;1274753;23;20018;-41
2023/07/13 02:20:37;;;;;;;6.63;1.60;;;;;;;14.11;100.00;101225.31;1277474;23;20100;-40
2023/07/13 02:21:09;;;;;;;4.93;2.42;;;;;;;14.21;100.00;101221.03;1280195;23;20373;-41
2023/07/13 02:21:40;;;;;;;4.25;1.75;;;;;;;14.30;100.00;101234.91;1280018;23;20017;-41
2023/07/13 02:22:12;;;;;;;3.67;1.27;;;;;;;14.29;100.00;101214.53;1273780;23;20013;-41
2023/07/13 02:22:44;;;;;;;8.57;1.52;;;;;;;14.24;100.00;101219.75;1273526;23;20103;-41
2023/07/13 02:23:15;;;;;;;2.78;1.42;;;;;;;14.31;100.00;101215.13;1273761;23;20021;-41
2023/07/13 02:23:47;;;;;;;4.10;1.65;;;;;;;14.37;100.00;101221.41;1274374;23;20144;-41
2023/07/13 02:24:20;;;;;;;4.88;1.75;;;;;;;14.33;100.00;101214.88;1277669;23;20078;-41
2023/07/13 02:24:52;;;;;;;7.50;1.40;;;;;;;14.32;100.00;101218.63;1280440;23;20017;-40
2023/07/13 02:25:26;;;;;;;6.72;1.95;;;;;;;14.37;100.00;101216.88;1280151;23;20021;-41
2023/07/13 02:26:02;;;;;;;2.85;1.35;;;;;;;14.42;100.00;101211.63;1280336;23;20013;-41
2023/07/13 02:26:34;;;;;;;7.85;2.00;;;;;;;14.21;100.00;101215.66;1271385;23;20017;-41
2023/07/13 02:27:06;;;;;;;9.57;1.48;;;;;;;14.39;100.00;101214.75;1271924;23;20020;-41
2023/07/13 02:27:37;;;;;;;3.65;1.42;;;;;;;14.44;100.00;101214.91;1271876;23;20021;-41
2023/07/13 02:28:09;;;;;;;6.43;2.58;;;;;;;14.41;100.00;101215.34;1273938;23;20025;-41
2023/07/13 02:28:40;;;;;;;4.90;1.63;;;;;;;14.21;100.00;101214.84;1271373;23;20081;-41
2023/07/13 02:29:12;;;;;;;4.57;1.58;;;;;;;14.27;100.00;101213.94;1266922;23;20121;-41
2023/07/13 02:29:44;;;;;;;4.03;1.33;;;;;;;14.39;100.00;101224.66;1267267;23;20025;-40
2023/07/13 02:30:15;;;;;;;4.40;1.70;;;;;;;14.46;100.00;101223.53;1260445;23;20029;-40
2023/07/13 02:30:47;;;;;;;4.65;1.80;;;;;;;14.59;100.00;101211.78;1268276;23;20014;-40
2023/07/13 02:31:19;;;;;;;7.35;1.45;;;;;;;14.58;100.00;101217.38;1265460;23;20389;-49
2023/07/13 02:31:51;;;;;;;11.23;2.42;;;;;;;14.62;100.00;101210.50;1272371;23;20066;-47
2023/07/13 02:32:24;;;;;;;6.32;1.10;;;;;;;14.62;100.00;101207.81;1280091;23;20036;-46
2023/07/13 02:32:57;;;;;;;4.55;1.88;;;;;;;14.62;100.00;101218.53;1278862;23;20013;-45
2023/07/13 02:33:29;;;;;;;8.30;1.65;;;;;;;14.61;100.00;101208.88;1285194;23;20023;-47
2023/07/13 02:34:00;;;;;;;11.25;2.97;;;;;;;14.64;100.00;101214.56;1273858;23;20032;-46
2023/07/13 02:34:32;;;;;;;8.65;1.60;;;;;;;14.56;100.00;101216.78;1271712;23;20601;-48
2023/07/13 02:35:04;;;;;;;4.78;1.50;;;;;;;14.59;100.00;101224.38;1273772;23;20483;-47
2023/07/13 02:35:36;;;;;;;5.90;1.42;;;;;;;14.67;100.00;101210.59;1274584;23;20021;-44
2023/07/13 02:36:08;;;;;;;2.75;1.73;;;;;;;14.69;100.00;101216.53;1279860;23;20088;-46
2023/07/13 02:36:40;;;;;;;6.63;2.05;;;;;;;14.62;100.00;101215.84;1280257;23;20348;-50
2023/07/13 02:37:12;;;;;;;6.55;1.48;;;;;;;14.67;100.00;101218.66;1280305;23;20017;-41
2023/07/13 02:37:44;;;;;;;2.80;1.30;;;;;;;14.68;100.00;101223.78;1280395;23;20013;-41
2023/07/13 02:38:15;;;;;;;2.88;1.42;;;;;;;14.64;100.00;101219.13;1280516;23;20013;-41
2023/07/13 02:38:49;;;;;;;6.50;1.67;;;;;;;14.70;100.00;101226.22;1280300;23;20013;-41
2023/07/13 02:39:21;;;;;;;8.63;1.85;;;;;;;14.72;100.00;101224.13;1280229;23;20052;-40
2023/07/13 02:39:54;;;;;;;5.15;2.22;;;;;;;14.77;100.00;101229.59;1280345;23;20027;-41
2023/07/13 02:40:27;;;;;;;2.78;1.48;;;;;;;14.72;100.00;101227.63;1278054;23;20016;-40
2023/07/13 02:40:59;;;;;;;8.60;4.38;;;;;;;14.69;100.00;101232.63;1278256;23;20017;-41
2023/07/13 02:41:31;;;;;;;3.08;1.63;;;;;;;14.80;100.00;101221.09;1265586;23;20013;-41
2023/07/13 02:42:03;;;;;;;5.80;1.77;;;;;;;14.73;100.00;101223.06;1259456;23;20097;-46
2023/07/13 02:42:35;;;;;;;4.05;1.90;;;;;;;14.76;100.00;101227.97;1261847;23;20025;-48
2023/07/13 02:43:10;;;;;;;3.95;1.10;;;;;;;14.73;100.00;101228.44;1264163;23;20038;-48
2023/07/13 02:43:41;;;;;;;4.75;1.67;;;;;;;14.76;100.00;101223.41;1275412;23;20083;-46
2023/07/13 02:44:14;;;;;;;2.25;1.27;;;;;;;14.73;100.00;101229.25;1279879;23;20038;-47
2023/07/13 02:44:46;;;;;;;10.00;2.00;;;;;;;14.74;100.00;101230.06;1271608;23;20041;-40
2023/07/13 02:45:17;;;;;;;7.25;2.47;;;;;;;14.68;100.00;101231.81;1273795;23;20017;-40
2023/07/13 02:45:49;;;;;;;8.38;1.80;;;;;;;14.73;100.00;101231.13;1271875;23;20023;-41
2023/07/13 02:46:21;;;;;;;4.25;2.40;;;;;;;14.81;100.00;101236.16;1266081;23;20165;-41
2023/07/13 02:46:53;;;;;;;2.15;1.27;;;;;;;14.64;100.00;101229.84;1271756;23;20360;-41